Time;durP1;ratioP1;P1;durP2;ratioP2;P2;SDS_P1;SDS_P2;PMS_P1;PMS_P2;Temp;Humidity;BMP_temperature;BMP_pressure;BME280_temperature;BME280_humidity;BME280_pressure;Samples;Min_cycle;Max_cycle;Signal;HPM_P1;HPM_P2
2024/01/12 00:00:45;;;;;;;42.60;13.03;;;0.00;99.90;;;;;;5013721;28;20022;-53
2024/01/12 00:03:11;;;;;;;40.20;13.60;;;0.00;99.90;;;;;;5013579;28;20029;-52
2024/01/12 00:05:37;;;;;;;36.27;11.87;;;0.00;99.90;;;;;;5013963;28;20034;-53
2024/01/12 00:08:02;;;;;;;41.77;14.03;;;0.00;99.90;;;;;;5013637;28;20033;-50
2024/01/12 00:10:28;;;;;;;42.43;13.10;;;0.00;99.90;;;;;;5013451;28;20022;-52
2024/01/12 00:12:53;;;;;;;39.37;14.37;;;-0.10;99.90;;;;;;5012797;28;20061;-54
2024/01/12 00:15:19;;;;;;;41.70;13.10;;;-0.20;99.90;;;;;;5013150;28;20036;-52
2024/01/12 00:17:45;;;;;;;33.63;11.73;;;-0.10;99.90;;;;;;5013325;28;20026;-53
2024/01/12 00:20:11;;;;;;;40.00;12.33;;;-0.10;99.90;;;;;;5013212;28;20342;-53
2024/01/12 00:22:36;;;;;;;41.80;13.73;;;-0.10;99.90;;;;;;5012838;28;20036;-53
2024/01/12 00:25:02;;;;;;;37.27;13.07;;;-0.10;99.90;;;;;;5013908;28;20486;-54
2024/01/12 00:27:28;;;;;;;36.03;13.57;;;-0.10;99.90;;;;;;5014092;28;20042;-53
2024/01/12 00:29:53;;;;;;;37.67;12.47;;;0.00;99.90;;;;;;5013333;28;20030;-54
2024/01/12 00:32:19;;;;;;;34.13;12.67;;;0.00;99.90;;;;;;5013901;28;20042;-54
2024/01/12 00:34:44;;;;;;;43.57;12.37;;;0.00;99.90;;;;;;5013651;28;20105;-52
2024/01/12 00:37:10;;;;;;;36.17;13.13;;;0.00;99.90;;;;;;5013741;28;20113;-54
2024/01/12 00:39:36;;;;;;;40.83;12.07;;;0.00;99.90;;;;;;5011670;28;20030;-52
2024/01/12 00:42:03;;;;;;;36.67;12.40;;;0.00;99.90;;;;;;5013556;28;20674;-52
2024/01/12 00:44:28;;;;;;;30.93;11.90;;;0.10;99.90;;;;;;5013524;28;20040;-52
2024/01/12 00:46:55;;;;;;;36.30;11.47;;;0.10;99.90;;;;;;5013553;28;20026;-53
2024/01/12 00:49:21;;;;;;;42.37;13.17;;;0.10;99.90;;;;;;5013226;28;20080;-54
2024/01/12 00:51:48;;;;;;;29.77;10.50;;;0.10;99.90;;;;;;5013785;28;20069;-53
2024/01/12 00:54:14;;;;;;;35.43;11.27;;;0.10;99.90;;;;;;5013464;28;20026;-54
2024/01/12 00:56:40;;;;;;;30.60;10.67;;;0.10;99.90;;;;;;5013349;28;20026;-54
2024/01/12 00:59:06;;;;;;;35.97;12.43;;;0.10;99.90;;;;;;5013508;28;20069;-54
2024/01/12 01:01:33;;;;;;;33.83;11.37;;;0.20;99.90;;;;;;5013117;28;20030;-54
2024/01/12 01:04:00;;;;;;;40.73;12.33;;;0.20;99.90;;;;;;5013627;28;20475;-54
2024/01/12 01:06:26;;;;;;;36.60;11.50;;;0.20;99.90;;;;;;5013317;28;20089;-52
2024/01/12 01:08:52;;;;;;;40.03;11.77;;;0.20;99.90;;;;;;5013484;28;20627;-54
2024/01/12 01:11:17;;;;;;;42.70;12.80;;;0.20;99.90;;;;;;5013143;28;20076;-52
2024/01/12 01:13:43;;;;;;;40.53;13.17;;;0.20;99.90;;;;;;5013871;28;20093;-54
2024/01/12 01:16:09;;;;;;;35.23;12.10;;;0.20;99.90;;;;;;5013398;28;20026;-53
2024/01/12 01:18:35;;;;;;;38.47;12.53;;;0.20;99.90;;;;;;5012125;28;20038;-53
2024/01/12 01:21:00;;;;;;;42.70;12.83;;;0.20;99.90;;;;;;5012894;28;20438;-53
2024/01/12 01:23:26;;;;;;;41.93;13.40;;;0.20;99.90;;;;;;5012751;28;20021;-53
2024/01/12 01:25:53;;;;;;;35.77;13.17;;;0.20;99.90;;;;;;5017026;28;20048;-52
2024/01/12 01:28:19;;;;;;;35.33;12.93;;;0.20;99.90;;;;;;5016854;28;20030;-54
2024/01/12 01:30:45;;;;;;;37.77;13.83;;;0.20;99.90;;;;;;5016698;28;20034;-53
2024/01/12 01:33:10;;;;;;;40.70;13.13;;;0.20;99.90;;;;;;5016815;28;20034;-54
2024/01/12 01:35:36;;;;;;;40.93;12.60;;;0.20;99.90;;;;;;5016459;28;20037;-52
2024/01/12 01:38:01;;;;;;;42.00;13.53;;;0.20;99.90;;;;;;5016901;28;20060;-52
2024/01/12 01:40:27;;;;;;;40.97;13.57;;;0.20;99.90;;;;;;5016554;28;20033;-52
2024/01/12 01:42:52;;;;;;;42.10;14.90;;;0.20;99.90;;;;;;5016681;28;20074;-54
2024/01/12 01:45:18;;;;;;;44.50;13.37;;;0.30;99.90;;;;;;5016584;28;20025;-54
2024/01/12 01:47:45;;;;;;;44.80;14.43;;;0.20;99.90;;;;;;5016419;28;20037;-53
2024/01/12 01:50:13;;;;;;;46.00;14.27;;;0.30;99.90;;;;;;5014691;28;20483;-50
2024/01/12 01:52:39;;;;;;;44.30;13.43;;;0.30;99.90;;;;;;5016536;28;20450;-53
2024/01/12 01:55:05;;;;;;;41.87;13.77;;;0.30;99.90;;;;;;5016562;28;20502;-53
2024/01/12 01:57:32;;;;;;;46.90;14.03;;;0.30;99.90;;;;;;5016199;28;20053;-54
2024/01/12 01:59:57;;;;;;;41.47;12.93;;;0.30;99.90;;;;;;5016141;28;20050;-52
2024/01/12 02:02:23;;;;;;;47.43;13.57;;;0.20;99.90;;;;;;5016380;28;20052;-48
2024/01/12 02:04:51;;;;;;;47.67;13.40;;;0.20;99.90;;;;;;5016112;28;20033;-54
2024/01/12 02:07:17;;;;;;;51.50;13.83;;;0.20;99.90;;;;;;5016473;28;20030;-53
2024/01/12 02:09:43;;;;;;;47.50;12.87;;;0.30;99.90;;;;;;5015977;28;20087;-52
2024/01/12 02:12:09;;;;;;;40.73;13.07;;;0.30;99.90;;;;;;5016098;28;20108;-54
2024/01/12 02:14:35;;;;;;;38.73;12.47;;;0.30;99.90;;;;;;5015814;28;20609;-53
2024/01/12 02:17:00;;;;;;;44.70;11.10;;;0.30;99.90;;;;;;5015840;28;20471;-51
2024/01/12 02:19:26;;;;;;;45.27;12.33;;;0.30;99.90;;;;;;5015372;28;20026;-49
2024/01/12 02:21:52;;;;;;;44.57;13.07;;;0.30;99.90;;;;;;5015409;28;20390;-49
2024/01/12 02:24:17;;;;;;;41.90;12.00;;;0.30;99.90;;;;;;5015260;28;20037;-49
2024/01/12 02:26:43;;;;;;;45.37;12.63;;;0.30;99.90;;;;;;5015475;28;20402;-48
2024/01/12 02:29:08;;;;;;;37.27;11.67;;;0.30;99.90;;;;;;5015258;28;20125;-53
2024/01/12 02:31:34;;;;;;;44.17;11.47;;;0.30;99.90;;;;;;5013710;28;20040;-50
2024/01/12 02:34:00;;;;;;;44.70;10.93;;;0.30;99.90;;;;;;5015102;28;20038;-48
2024/01/12 02:36:26;;;;;;;50.70;12.47;;;0.40;99.90;;;;;;5014827;28;20022;-51
2024/01/12 02:38:52;;;;;;;40.97;11.60;;;0.40;99.90;;;;;;5015096;28;20053;-49
2024/01/12 02:41:18;;;;;;;49.93;11.40;;;0.40;99.90;;;;;;5015143;28;20483;-52
2024/01/12 02:43:44;;;;;;;46.50;11.83;;;0.50;99.90;;;;;;5015403;28;20614;-50
2024/01/12 02:46:10;;;;;;;47.87;10.87;;;0.50;99.90;;;;;;5014982;28;20510;-48
2024/01/12 02:48:36;;;;;;;44.33;11.80;;;0.40;99.90;;;;;;5015004;28;20033;-50
2024/01/12 02:51:01;;;;;;;46.00;13.00;;;0.50;99.90;;;;;;5014778;28;20092;-49
2024/01/12 02:53:27;;;;;;;54.00;12.47;;;0.50;99.90;;;;;;5015012;28;20037;-49
2024/01/12 02:55:53;;;;;;;41.03;12.37;;;0.50;99.90;;;;;;5014516;28;20057;-50
2024/01/12 02:58:18;;;;;;;44.00;13.20;;;0.40;99.90;;;;;;5015126;28;20383;-48
2024/01/12 03:00:44;;;;;;;48.07;12.13;;;0.50;99.90;;;;;;5014353;28;20022;-49
2024/01/12 03:03:10;;;;;;;42.70;11.70;;;0.40;99.90;;;;;;5014817;28;20513;-53
2024/01/12 03:05:35;;;;;;;54.73;12.90;;;0.40;99.90;;;;;;5014674;28;20044;-51
2024/01/12 03:08:01;;;;;;;48.63;11.47;;;0.40;99.90;;;;;;5014627;28;20061;-51
2024/01/12 03:10:26;;;;;;;49.83;13.10;;;0.40;99.90;;;;;;5014445;28;20491;-49
2024/01/12 03:12:52;;;;;;;48.70;12.70;;;0.40;99.90;;;;;;5014520;28;20091;-49
2024/01/12 03:15:18;;;;;;;45.30;11.70;;;0.40;99.90;;;;;;5014259;28;20041;-51
2024/01/12 03:17:43;;;;;;;45.73;12.93;;;0.40;99.90;;;;;;5014305;28;20060;-50
2024/01/12 03:20:09;;;;;;;45.40;12.33;;;0.40;99.90;;;;;;5014407;28;20111;-49
2024/01/12 03:22:36;;;;;;;42.13;12.40;;;0.40;99.90;;;;;;5014208;28;20062;-49
2024/01/12 03:25:02;;;;;;;53.67;14.60;;;0.40;99.90;;;;;;5014357;28;20030;-48
2024/01/12 03:27:28;;;;;;;49.97;14.63;;;0.30;99.90;;;;;;4996515;28;20041;-50
2024/01/12 03:29:54;;;;;;;54.20;14.30;;;0.30;99.90;;;;;;5013909;28;20037;-50
2024/01/12 03:32:22;;;;;;;45.33;11.93;;;0.30;99.90;;;;;;5014361;28;20048;-48
2024/01/12 03:34:48;;;;;;;50.78;14.00;;;0.30;99.90;;;;;;5013997;28;20479;-48
2024/01/12 03:37:14;;;;;;;58.53;13.50;;;0.30;99.90;;;;;;5014214;28;20107;-48
2024/01/12 03:39:39;;;;;;;48.63;12.13;;;0.30;99.90;;;;;;5013931;28;20030;-49
2024/01/12 03:42:05;;;;;;;52.83;13.77;;;0.40;99.90;;;;;;5014114;28;20022;-48
2024/01/12 03:44:31;;;;;;;56.30;15.53;;;0.40;99.90;;;;;;5012878;28;20172;-48
2024/01/12 03:46:56;;;;;;;48.47;12.20;;;0.40;99.90;;;;;;5014203;28;20033;-48
2024/01/12 03:49:22;;;;;;;44.30;13.13;;;0.40;99.90;;;;;;5015307;28;20064;-51
2024/01/12 03:51:53;;;;;;;47.47;11.77;;;0.40;99.90;;;;;;5015378;28;20041;-48
2024/01/12 03:54:22;;;;;;;43.93;12.93;;;0.40;99.90;;;;;;5015893;28;20072;-50
2024/01/12 03:56:48;;;;;;;43.50;13.75;;;0.40;99.90;;;;;;5014455;28;20075;-50
2024/01/12 03:59:14;;;;;;;51.93;12.30;;;0.40;99.90;;;;;;5013886;28;20022;-49
2024/01/12 04:01:44;;;;;;;57.50;13.97;;;0.40;99.90;;;;;;5013949;28;20037;-49
2024/01/12 04:04:09;;;;;;;55.43;14.17;;;0.40;99.90;;;;;;5014425;28;20050;-50
2024/01/12 04:06:35;;;;;;;50.50;14.03;;;0.40;99.90;;;;;;5014114;28;20509;-53
2024/01/12 04:09:01;;;;;;;49.80;13.47;;;0.40;99.90;;;;;;5013777;28;20030;-53
2024/01/12 04:11:26;;;;;;;53.20;13.10;;;0.50;99.90;;;;;;5012296;28;20486;-53
2024/01/12 04:13:52;;;;;;;53.10;14.13;;;0.50;99.90;;;;;;5013258;28;20375;-50
2024/01/12 04:16:19;;;;;;;49.97;14.30;;;0.50;99.90;;;;;;5014013;28;20128;-53
2024/01/12 04:18:45;;;;;;;50.77;13.30;;;0.50;99.90;;;;;;5013648;28;20087;-52
2024/01/12 04:21:11;;;;;;;53.83;14.90;;;0.50;99.90;;;;;;5013564;28;20034;-52
2024/01/12 04:23:38;;;;;;;47.67;13.37;;;0.50;99.90;;;;;;5013698;28;20056;-49
2024/01/12 04:26:04;;;;;;;51.73;12.43;;;0.50;99.90;;;;;;5013365;28;20038;-53
2024/01/12 04:28:29;;;;;;;52.43;13.53;;;0.50;99.90;;;;;;5013839;28;20720;-52
2024/01/12 04:30:55;;;;;;;48.33;13.20;;;0.60;99.90;;;;;;5013382;28;20056;-53
2024/01/12 04:33:20;;;;;;;47.57;13.10;;;0.60;99.90;;;;;;5013419;28;20479;-49
2024/01/12 04:35:46;;;;;;;50.27;13.10;;;0.60;99.90;;;;;;5013418;28;20064;-51
2024/01/12 04:38:12;;;;;;;49.83;13.77;;;0.60;99.90;;;;;;5013591;28;20032;-53
2024/01/12 04:40:39;;;;;;;44.00;13.33;;;0.60;99.90;;;;;;5013258;28;20026;-53
2024/01/12 04:43:04;;;;;;;61.90;13.73;;;0.50;99.90;;;;;;5013314;28;20391;-52
2024/01/12 04:45:30;;;;;;;49.07;14.37;;;0.60;99.90;;;;;;5013453;28;20030;-48
2024/01/12 04:47:56;;;;;;;51.73;12.77;;;0.60;99.90;;;;;;5013612;28;20033;-52
2024/01/12 04:50:21;;;;;;;49.50;12.67;;;0.50;99.90;;;;;;5012075;28;20414;-52
2024/01/12 04:52:48;;;;;;;44.83;12.80;;;0.50;99.90;;;;;;5013152;28;20030;-54
2024/01/12 04:55:13;;;;;;;51.43;12.43;;;0.60;99.90;;;;;;5013367;28;20054;-50
2024/01/12 04:57:39;;;;;;;47.47;12.43;;;0.50;99.90;;;;;;5013462;28;20668;-54
2024/01/12 05:00:05;;;;;;;43.53;12.93;;;0.50;99.90;;;;;;5016454;28;20117;-50
2024/01/12 05:02:31;;;;;;;47.27;12.97;;;0.50;99.90;;;;;;5017138;28;20380;-50
2024/01/12 05:04:57;;;;;;;53.17;12.30;;;0.60;99.90;;;;;;5017061;28;20044;-52
2024/01/12 05:07:23;;;;;;;40.60;13.20;;;0.60;99.90;;;;;;5015854;28;20038;-53
2024/01/12 05:09:48;;;;;;;47.47;14.00;;;0.50;99.90;;;;;;5016950;28;20030;-51
2024/01/12 05:12:14;;;;;;;46.07;13.20;;;0.60;99.90;;;;;;5017032;28;20025;-52
2024/01/12 05:14:40;;;;;;;54.57;13.93;;;0.60;99.90;;;;;;5011805;28;20034;-53
2024/01/12 05:17:06;;;;;;;48.23;12.97;;;0.60;99.90;;;;;;5016882;28;20025;-53
2024/01/12 05:19:31;;;;;;;47.70;14.00;;;0.50;99.90;;;;;;5016635;28;20021;-53
2024/01/12 05:21:57;;;;;;;45.13;13.20;;;0.50;99.90;;;;;;5016929;28;20471;-47
2024/01/12 05:24:23;;;;;;;47.67;14.40;;;0.50;99.90;;;;;;5016848;28;20045;-53
2024/01/12 05:26:48;;;;;;;54.27;13.83;;;0.50;99.90;;;;;;5016686;28;20185;-50
2024/01/12 05:29:14;;;;;;;55.63;13.50;;;0.40;99.90;;;;;;5016962;28;20030;-50
2024/01/12 05:31:45;;;;;;;57.77;13.67;;;0.40;99.90;;;;;;5016447;28;20037;-52
2024/01/12 05:34:11;;;;;;;51.63;12.60;;;0.30;99.90;;;;;;5026025;28;20061;-49
2024/01/12 05:36:37;;;;;;;49.03;13.73;;;0.40;99.90;;;;;;5021321;28;20026;-52
2024/01/12 05:39:03;;;;;;;48.77;12.83;;;0.30;99.90;;;;;;5016303;28;20026;-53
2024/01/12 05:41:30;;;;;;;50.13;13.40;;;0.40;99.90;;;;;;5016094;28;20026;-51
2024/01/12 05:43:56;;;;;;;56.70;13.67;;;0.40;99.90;;;;;;5015783;28;20033;-52
2024/01/12 05:46:22;;;;;;;56.07;13.50;;;0.40;99.90;;;;;;5016090;28;20042;-54
2024/01/12 05:48:48;;;;;;;62.13;14.43;;;0.50;99.90;;;;;;5015945;28;20399;-52
2024/01/12 05:51:14;;;;;;;54.93;15.77;;;0.50;99.90;;;;;;5015891;28;20091;-50
2024/01/12 05:53:40;;;;;;;62.20;14.33;;;0.50;99.90;;;;;;5015591;28;20539;-53
2024/01/12 05:56:06;;;;;;;53.37;14.13;;;0.50;99.90;;;;;;5015840;28;20172;-54
2024/01/12 05:58:31;;;;;;;53.07;13.63;;;0.50;99.90;;;;;;5016018;28;20513;-53
2024/01/12 06:00:57;;;;;;;56.60;16.30;;;0.60;99.90;;;;;;5019618;28;20096;-52
2024/01/12 06:03:23;;;;;;;55.17;14.93;;;0.60;99.90;;;;;;5015854;28;20385;-52
2024/01/12 06:05:50;;;;;;;57.43;15.20;;;0.60;99.90;;;;;;5016081;28;20046;-51
2024/01/12 06:08:16;;;;;;;60.27;15.80;;;0.60;99.90;;;;;;5014586;28;20513;-52
2024/01/12 06:10:43;;;;;;;65.70;16.07;;;0.60;99.90;;;;;;5014486;28;20033;-54
2024/01/12 06:13:09;;;;;;;63.73;16.50;;;0.60;99.90;;;;;;5015994;28;20061;-51
2024/01/12 06:15:34;;;;;;;65.07;16.30;;;0.60;99.90;;;;;;5026667;28;20033;-50
2024/01/12 06:18:00;;;;;;;66.33;16.97;;;0.60;99.90;;;;;;5020584;28;20025;-53
2024/01/12 06:20:26;;;;;;;59.13;16.23;;;0.60;99.90;;;;;;5013220;28;20076;-54
2024/01/12 06:22:52;;;;;;;70.50;16.93;;;0.60;99.90;;;;;;5015717;28;20042;-53
2024/01/12 06:25:18;;;;;;;61.93;16.40;;;0.60;99.90;;;;;;5015030;28;20117;-53
2024/01/12 06:27:43;;;;;;;74.13;16.40;;;0.60;99.90;;;;;;5015503;28;20033;-53
2024/01/12 06:30:09;;;;;;;68.00;17.33;;;0.60;99.90;;;;;;5015314;28;20120;-51
2024/01/12 06:32:39;;;;;;;66.33;16.97;;;0.60;99.90;;;;;;5015652;28;20339;-53
2024/01/12 06:35:08;;;;;;;64.77;15.40;;;0.60;99.90;;;;;;5014768;28;20474;-54
2024/01/12 06:37:34;;;;;;;66.93;16.73;;;0.60;99.90;;;;;;5015965;28;20061;-53
2024/01/12 06:40:00;;;;;;;67.27;16.13;;;0.60;99.90;;;;;;5015448;28;20033;-53
2024/01/12 06:42:27;;;;;;;62.30;15.80;;;0.60;99.90;;;;;;5015392;28;20026;-53
2024/01/12 06:44:52;;;;;;;64.43;15.43;;;0.60;99.90;;;;;;5015388;28;20517;-52
2024/01/12 06:47:18;;;;;;;69.87;16.33;;;0.50;99.90;;;;;;5015831;28;20029;-53
2024/01/12 06:49:45;;;;;;;68.17;16.83;;;0.50;99.90;;;;;;5014998;28;20367;-53
2024/01/12 06:52:11;;;;;;;79.17;18.93;;;0.50;99.90;;;;;;5015150;28;20509;-53
2024/01/12 06:54:37;;;;;;;69.27;16.67;;;0.50;99.90;;;;;;5014685;28;20451;-52
2024/01/12 06:57:03;;;;;;;69.07;16.67;;;0.50;99.90;;;;;;5015039;28;20054;-53
2024/01/12 06:59:29;;;;;;;61.67;16.47;;;0.50;99.90;;;;;;5014674;28;20037;-52
2024/01/12 07:01:54;;;;;;;66.77;16.07;;;0.50;99.90;;;;;;5014713;28;20025;-51
2024/01/12 07:04:20;;;;;;;58.23;14.50;;;0.50;99.90;;;;;;5014942;28;20048;-54
2024/01/12 07:06:46;;;;;;;58.53;15.63;;;0.50;99.90;;;;;;5014692;28;20040;-52
2024/01/12 07:09:13;;;;;;;68.10;14.70;;;0.50;99.90;;;;;;5014718;28;20026;-53
2024/01/12 07:11:42;;;;;;;56.77;16.93;;;0.60;99.90;;;;;;5014651;28;20030;-53
2024/01/12 07:14:08;;;;;;;63.75;15.77;;;0.60;99.90;;;;;;5014644;28;20068;-52
2024/01/12 07:16:35;;;;;;;58.93;15.13;;;0.60;99.90;;;;;;5013698;28;20057;-53
2024/01/12 07:19:01;;;;;;;66.60;15.23;;;0.60;99.90;;;;;;5014090;28;20471;-53
2024/01/12 07:21:26;;;;;;;62.87;14.77;;;0.70;99.90;;;;;;5014147;28;20087;-53
2024/01/12 07:23:52;;;;;;;55.50;15.00;;;0.70;99.90;;;;;;5014464;28;20486;-50
2024/01/12 07:26:17;;;;;;;68.37;15.83;;;0.70;99.90;;;;;;5013588;28;20115;-49
2024/01/12 07:28:43;;;;;;;47.43;14.53;;;0.70;99.90;;;;;;5013641;28;20033;-50
2024/01/12 07:31:09;;;;;;;54.63;14.30;;;0.70;99.90;;;;;;5015103;28;20037;-53
2024/01/12 07:33:34;;;;;;;57.13;14.57;;;0.70;99.90;;;;;;5014842;28;20041;-53
2024/01/12 07:36:00;;;;;;;48.70;14.03;;;0.70;99.90;;;;;;5014102;28;20042;-51
2024/01/12 07:38:25;;;;;;;51.57;13.20;;;0.70;99.90;;;;;;5014391;28;20022;-54
2024/01/12 07:40:51;;;;;;;55.13;14.60;;;0.70;99.90;;;;;;5012991;28;20558;-53
2024/01/12 07:43:17;;;;;;;54.77;14.47;;;0.70;99.90;;;;;;5015566;28;20026;-52
2024/01/12 07:45:42;;;;;;;57.97;15.20;;;0.70;99.90;;;;;;5014211;28;20133;-51
2024/01/12 07:48:08;;;;;;;49.20;15.00;;;0.70;99.90;;;;;;5014555;28;20512;-54
2024/01/12 07:50:33;;;;;;;55.50;15.63;;;0.70;99.90;;;;;;5012963;28;20048;-55
2024/01/12 07:52:59;;;;;;;50.37;15.53;;;0.70;99.90;;;;;;5013688;28;20040;-52
2024/01/12 07:55:27;;;;;;;62.57;15.30;;;0.70;99.90;;;;;;5014288;28;20034;-51
2024/01/12 07:57:53;;;;;;;51.47;15.27;;;0.70;99.90;;;;;;5014338;28;20347;-52
2024/01/12 08:00:19;;;;;;;61.77;15.40;;;0.80;99.90;;;;;;5013890;28;20022;-53
2024/01/12 08:02:44;;;;;;;65.87;15.60;;;0.80;99.90;;;;;;5014820;28;20036;-49
2024/01/12 08:05:10;;;;;;;50.40;14.97;;;0.80;99.90;;;;;;5015357;28;20030;-50
2024/01/12 08:07:37;;;;;;;55.63;15.00;;;0.90;99.90;;;;;;5014333;28;20542;-50
2024/01/12 08:10:06;;;;;;;63.77;14.07;;;0.90;99.90;;;;;;5013653;28;20037;-53
2024/01/12 08:12:31;;;;;;;61.58;14.73;;;0.90;99.90;;;;;;5014580;28;20030;-53
2024/01/12 08:14:57;;;;;;;57.07;14.63;;;1.00;99.90;;;;;;5014370;28;20030;-54
2024/01/12 08:17:22;;;;;;;56.30;16.23;;;1.00;99.90;;;;;;5014285;28;20022;-54
2024/01/12 08:19:48;;;;;;;51.00;14.90;;;0.90;99.90;;;;;;5012738;28;20029;-51
2024/01/12 08:22:14;;;;;;;56.00;14.43;;;0.90;99.90;;;;;;5014549;28;20118;-53
2024/01/12 08:24:40;;;;;;;58.20;15.80;;;0.90;99.90;;;;;;5013969;28;20042;-53
2024/01/12 08:27:05;;;;;;;58.93;14.57;;;1.00;99.90;;;;;;5014318;28;20398;-52
2024/01/12 08:29:31;;;;;;;54.70;15.73;;;1.00;99.90;;;;;;5013999;28;20029;-53
2024/01/12 08:31:58;;;;;;;59.33;16.80;;;1.00;99.90;;;;;;5013898;28;20030;-52
2024/01/12 08:34:27;;;;;;;55.60;14.33;;;1.00;99.90;;;;;;5013699;28;20029;-53
2024/01/12 08:36:53;;;;;;;61.67;17.73;;;1.00;99.90;;;;;;5014556;28;20022;-54
2024/01/12 08:39:19;;;;;;;51.33;14.40;;;1.00;99.90;;;;;;5014254;28;20029;-54
2024/01/12 08:41:44;;;;;;;56.70;15.60;;;1.00;99.90;;;;;;5014139;28;20038;-52
2024/01/12 08:44:11;;;;;;;60.67;15.93;;;1.00;99.90;;;;;;5013943;28;20037;-53
2024/01/12 08:46:37;;;;;;;56.77;15.40;;;1.10;99.90;;;;;;5014076;28;20037;-51
2024/01/12 08:49:03;;;;;;;61.03;15.17;;;1.00;99.90;;;;;;5014086;28;20442;-54
2024/01/12 08:51:29;;;;;;;58.10;15.37;;;1.00;99.90;;;;;;5013869;28;20030;-52
2024/01/12 08:53:54;;;;;;;56.80;16.17;;;1.00;99.90;;;;;;5012874;28;20036;-54
2024/01/12 08:56:20;;;;;;;58.53;14.73;;;1.00;99.90;;;;;;5014459;28;20030;-53
2024/01/12 08:58:45;;;;;;;62.47;16.40;;;1.00;99.90;;;;;;5014560;28;20018;-53
2024/01/12 09:01:13;;;;;;;50.97;14.63;;;1.10;99.90;;;;;;5014377;28;20030;-50
2024/01/12 09:03:38;;;;;;;59.73;14.40;;;1.10;99.90;;;;;;5014683;28;20038;-55
2024/01/12 09:06:04;;;;;;;56.10;14.20;;;1.20;99.90;;;;;;5014051;28;20040;-50
2024/01/12 09:08:30;;;;;;;45.83;12.97;;;1.10;99.90;;;;;;5014911;28;20037;-53
2024/01/12 09:10:55;;;;;;;52.10;12.87;;;1.20;99.90;;;;;;5013414;28;20053;-53
2024/01/12 09:13:21;;;;;;;50.93;13.30;;;1.10;99.90;;;;;;5013640;28;20428;-53
2024/01/12 09:15:47;;;;;;;48.93;13.90;;;1.20;99.90;;;;;;5013705;28;20089;-53
2024/01/12 09:18:12;;;;;;;43.07;12.97;;;1.20;99.90;;;;;;5013881;28;20033;-48
2024/01/12 09:20:38;;;;;;;44.17;13.70;;;1.20;99.90;;;;;;5013283;28;20096;-53
2024/01/12 09:23:04;;;;;;;45.67;13.70;;;1.20;99.90;;;;;;5013800;28;20041;-53
2024/01/12 09:25:32;;;;;;;54.37;14.13;;;1.20;99.90;;;;;;5013448;28;20062;-48
2024/01/12 09:27:57;;;;;;;53.33;14.70;;;1.20;99.90;;;;;;5013960;28;20475;-54
2024/01/12 09:30:23;;;;;;;54.53;14.20;;;1.20;99.90;;;;;;5014174;28;20034;-52
2024/01/12 09:32:49;;;;;;;49.23;13.97;;;1.30;99.90;;;;;;5013911;28;20030;-53
2024/01/12 09:35:14;;;;;;;53.73;14.67;;;1.30;99.90;;;;;;5014046;28;20553;-53
2024/01/12 09:37:40;;;;;;;54.33;14.27;;;1.30;99.90;;;;;;5013981;28;20036;-53
2024/01/12 09:40:06;;;;;;;45.17;12.37;;;1.30;99.90;;;;;;5013752;28;20058;-51
2024/01/12 09:42:33;;;;;;;46.43;13.33;;;1.30;99.90;;;;;;5013597;28;20461;-52
2024/01/12 09:45:01;;;;;;;48.70;13.53;;;1.30;99.90;;;;;;5014865;28;20390;-51
2024/01/12 09:47:27;;;;;;;36.25;11.55;;;1.20;99.90;;;;;;5017637;28;20037;-55
2024/01/12 09:49:54;;;;;;;25.97;8.73;;;1.20;99.90;;;;;;5017240;28;20478;-52
2024/01/12 09:52:20;;;;;;;27.33;9.03;;;1.20;99.90;;;;;;5015759;28;20034;-52
2024/01/12 09:54:46;;;;;;;33.47;9.27;;;1.30;99.90;;;;;;5015827;28;20495;-54
2024/01/12 09:57:12;;;;;;;27.00;8.33;;;1.20;99.90;;;;;;5014254;28;20110;-52
2024/01/12 09:59:39;;;;;;;39.03;10.20;;;1.30;99.90;;;;;;5021477;28;20029;-51
2024/01/12 10:02:11;;;;;;;54.10;14.60;;;1.30;99.90;;;;;;5018772;28;20026;-54
2024/01/12 10:04:37;;;;;;;51.97;14.37;;;1.30;99.90;;;;;;5017467;28;20561;-53
2024/01/12 10:07:46;;;;;;;;;;;;;;;;;;;;;
2024/01/12 10:10:21;;;;;;;50.20;13.43;;;1.30;99.90;;;;;;5023934;23;20044;-53
2024/01/12 10:12:50;;;;;;;51.83;14.63;;;1.30;99.90;;;;;;5019599;28;20409;-51
2024/01/12 10:15:15;;;;;;;52.40;14.37;;;1.30;99.90;;;;;;5029382;28;20033;-51
2024/01/12 10:17:41;;;;;;;45.90;13.73;;;1.30;99.90;;;;;;5012670;28;20033;-51
2024/01/12 10:20:07;;;;;;;60.77;15.20;;;1.30;99.90;;;;;;5014709;28;20087;-51
2024/01/12 10:22:33;;;;;;;46.40;14.27;;;1.20;99.90;;;;;;5014592;28;20045;-49
2024/01/12 10:25:05;;;;;;;52.00;16.37;;;1.20;99.90;;;;;;5015098;28;20030;-52
2024/01/12 10:27:31;;;;;;;40.00;12.07;;;1.20;99.90;;;;;;5015154;28;20084;-49
2024/01/12 10:29:57;;;;;;;50.13;13.77;;;1.20;99.90;;;;;;5013623;28;20434;-50
2024/01/12 10:32:24;;;;;;;52.43;15.57;;;1.20;99.90;;;;;;5016071;28;20573;-51
2024/01/12 10:34:52;;;;;;;40.13;12.70;;;1.30;99.90;;;;;;5016110;28;20034;-49
2024/01/12 10:37:18;;;;;;;37.13;11.70;;;1.40;99.90;;;;;;5016492;28;20057;-48
2024/01/12 10:39:46;;;;;;;33.23;9.83;;;1.50;99.90;;;;;;5016005;28;20026;-48
2024/01/12 10:42:14;;;;;;;35.87;11.00;;;1.60;99.90;;;;;;5016619;28;20037;-49
2024/01/12 10:44:41;;;;;;;31.37;10.20;;;1.60;99.90;;;;;;5015180;28;20042;-53
2024/01/12 10:47:16;;;;;;;42.10;12.17;;;1.80;99.90;;;;;;5014181;28;20108;-53
2024/01/12 10:49:50;;;;;;;37.03;12.07;;;1.90;99.90;;;;;;5013728;28;20479;-52
2024/01/12 10:52:48;;;;;;;42.70;12.00;;;1.90;99.90;;;;;;5012484;28;20387;-53
2024/01/12 10:55:21;;;;;;;33.73;10.50;;;1.80;99.90;;;;;;5013846;28;20034;-54
2024/01/12 10:57:47;;;;;;;37.93;11.40;;;1.80;99.90;;;;;;5013432;28;20430;-54
2024/01/12 11:00:14;;;;;;;34.63;10.57;;;1.80;99.90;;;;;;5012928;28;20033;-54
2024/01/12 11:02:41;;;;;;;38.67;11.33;;;1.80;99.90;;;;;;5013714;28;20398;-52
2024/01/12 11:05:10;;;;;;;36.43;10.03;;;1.90;99.90;;;;;;5013769;28;20057;-53
2024/01/12 11:07:38;;;;;;;32.57;9.67;;;1.90;99.90;;;;;;5013690;28;20229;-54
2024/01/12 11:10:06;;;;;;;33.20;10.60;;;2.00;99.90;;;;;;5013377;28;20582;-54
2024/01/12 11:12:35;;;;;;;30.80;10.83;;;2.00;99.90;;;;;;5013553;28;20069;-55
2024/01/12 11:15:01;;;;;;;32.47;10.30;;;1.90;99.90;;;;;;5013596;28;20205;-53
2024/01/12 11:17:32;;;;;;;37.43;11.07;;;2.00;99.90;;;;;;5013581;28;20503;-53
2024/01/12 11:20:12;;;;;;;38.97;11.10;;;2.00;99.90;;;;;;5013390;28;20076;-53
2024/01/12 11:22:39;;;;;;;38.83;11.60;;;2.00;99.90;;;;;;5013462;28;20033;-49
2024/01/12 11:25:09;;;;;;;32.47;10.87;;;2.10;99.90;;;;;;5013409;28;20057;-51
2024/01/12 11:27:38;;;;;;;;;;;2.20;99.90;;;;;;5014023;28;20418;-54
2024/01/12 11:30:10;;;;;;;32.13;9.47;;;2.20;99.90;;;;;;5011776;28;19932;-51
2024/01/12 11:32:37;;;;;;;35.23;12.10;;;2.20;99.90;;;;;;5013245;28;20080;-53
2024/01/12 11:35:37;;;;;;;38.33;12.13;;;2.20;99.90;;;;;;5013329;28;20034;-53
2024/01/12 11:38:05;;;;;;;31.23;11.37;;;2.30;99.90;;;;;;4970822;28;20041;-53
2024/01/12 11:40:31;;;;;;;33.17;10.93;;;2.20;99.90;;;;;;5012912;28;20121;-53
2024/01/12 11:42:59;;;;;;;40.37;12.53;;;2.20;99.90;;;;;;5013187;28;20133;-53
2024/01/12 11:45:27;;;;;;;37.17;11.57;;;2.20;99.90;;;;;;5013060;28;20487;-50
2024/01/12 11:47:53;;;;;;;38.97;12.70;;;2.20;99.90;;;;;;5012861;28;20495;-53
2024/01/12 11:50:19;;;;;;;38.73;11.23;;;2.30;99.90;;;;;;5012775;28;20060;-53
2024/01/12 11:52:56;;;;;;;41.10;13.20;;;2.20;99.90;;;;;;5012863;28;20057;-54
2024/01/12 11:55:23;;;;;;;39.33;13.30;;;2.20;99.90;;;;;;5012774;28;20033;-53
2024/01/12 11:57:51;;;;;;;45.93;13.53;;;2.20;99.90;;;;;;5013138;28;20450;-50
2024/01/12 12:00:17;;;;;;;37.63;12.17;;;2.20;99.90;;;;;;5012672;28;20034;-54
2024/01/12 12:02:42;;;;;;;32.90;12.07;;;2.10;99.90;;;;;;5012741;28;20037;-54
2024/01/12 12:05:09;;;;;;;35.60;12.60;;;2.10;99.90;;;;;;5012983;28;20034;-54
2024/01/12 12:07:38;;;;;;;33.47;11.10;;;2.10;99.90;;;;;;5012854;28;20141;-50
2024/01/12 12:10:05;;;;;;;;;;;2.20;99.90;;;;;;5013650;28;20038;-54
2024/01/12 12:12:30;;;;;;;30.57;8.70;;;2.10;99.90;;;;;;5012688;28;20370;-51
2024/01/12 12:15:12;;;;;;;26.07;9.37;;;2.20;99.90;;;;;;5012527;28;20033;-55
2024/01/12 12:17:43;;;;;;;29.83;9.10;;;2.20;99.90;;;;;;5012706;28;20038;-52
2024/01/12 12:20:11;;;;;;;22.13;9.63;;;2.20;99.90;;;;;;5023340;28;20036;-53
2024/01/12 12:22:40;;;;;;;24.67;8.67;;;2.20;99.90;;;;;;5032298;28;20029;-54
2024/01/12 12:25:10;;;;;;;22.67;7.53;;;2.20;99.90;;;;;;5032255;28;20033;-55
2024/01/12 12:27:39;;;;;;;;;;;2.20;99.90;;;;;;5032609;28;20030;-54
2024/01/12 12:30:09;;;;;;;23.17;7.03;;;2.20;99.90;;;;;;5032208;28;19978;-53
2024/01/12 12:32:37;;;;;;;19.20;7.53;;;2.20;99.90;;;;;;5032254;28;20035;-53
2024/01/12 12:35:13;;;;;;;20.47;7.67;;;2.30;99.90;;;;;;5032181;28;20080;-53